Date,TemperatureHighF,TemperatureAvgF,TemperatureLowF,DewpointHighF,DewpointAvgF,DewpointLowF,HumidityHigh,HumidityAvg,HumidityLow,PressureMaxIn,PressureMinIn,WindSpeedMaxMPH,WindSpeedAvgMPH,GustSpeedMaxMPH,PrecipitationSumIn
2013-1-1,64,54,47,54,48,42,94,81,66,30.46,30.27,3,0,4,0.00
2013-1-2,62,55,52,54,52,49,97,90,72,30.44,30.27,4,0,5,0.04
2013-1-3,52,48,43,49,44,39,96,87,73,30.44,30.27,4,0,6,0.06
2013-1-4,58,43,32,46,36,32,98,78,43,30.50,30.26,4,0,8,0.00
2013-1-5,57,42,26,38,29,23,91,65,29,30.56,30.26,3,0,5,0.00
2013-1-6,51,47,43,46,40,34,90,77,59,30.50,30.27,4,1,6,0.01
2013-1-7,60,42,31,39,33,29,95,73,37,30.53,30.26,4,0,10,0.00
2013-1-8,60,47,33,46,39,30,91,74,58,30.56,30.26,2,0,6,0.00
2013-1-9,71,57,44,56,50,41,93,78,59,30.47,30.27,2,0,4,0.00
2013-1-10,79,62,49,59,53,48,97,76,41,30.42,30.19,4,1,8,0.00
2013-1-11,77,65,59,65,61,57,99,89,65,30.31,30.17,4,1,8,0.00
2013-1-12,81,68,57,65,60,56,97,78,47,30.26,30.09,6,1,10,0.00
2013-1-13,79,68,60,64,60,58,96,79,55,30.34,30.14,8,1,12,0.00
2013-1-14,81,69,61,63,60,57,92,74,52,30.33,30.11,5,2,11,0.00
2013-1-15,78,68,60,61,59,58,94,75,53,30.32,30.15,6,1,9,0.00
2013-1-16,76,68,63,66,62,59,96,81,64,30.30,30.15,6,1,10,0.02
2013-1-17,72,58,43,64,54,37,98,88,73,30.37,30.20,11,3,18,0.50
2013-1-18,60,44,32,39,30,22,96,65,24,30.55,30.25,4,1,9,0.00
2013-1-19,64,44,30,39,32,25,86,65,34,30.55,30.26,5,1,8,0.00
2013-1-20,69,51,39,40,36,31,92,62,28,30.52,30.25,6,1,10,0.00
2013-1-21,65,49,33,40,31,23,92,56,21,30.47,30.26,8,2,12,0.00
2013-1-22,53,43,35,23,18,13,52,37,21,30.50,30.26,8,3,14,0.00
2013-1-23,57,42,27,33,22,14,66,46,30,30.56,30.26,8,2,14,0.00
2013-1-24,65,52,34,43,29,7,76,47,14,30.51,30.26,11,3,18,0.00
2013-1-25,39,33,27,25,16,8,57,49,33,30.57,30.27,3,1,6,0.00
2013-1-26,67,47,34,38,32,24,80,58,30,30.56,30.26,4,1,6,0.00
2013-1-27,57,44,32,32,28,24,82,56,32,30.53,30.27,5,1,10,0.00
2013-1-28,62,48,40,50,40,30,93,75,57,30.52,30.27,3,0,4,0.00
2013-1-29,79,60,42,62,53,40,96,80,52,30.47,30.20,5,1,12,0.00
2013-1-30,79,68,51,65,60,46,93,79,51,30.27,30.11,15,4,23,0.37
2013-1-31,54,46,39,47,28,17,83,50,23,30.43,30.19,11,5,24,0.01